createdAt,value
2019-03-23T00:01:00.000Z,11.2
2019-03-23T00:06:00.000Z,11.2
2019-03-23T00:11:00.000Z,11.1
2019-03-23T00:16:00.000Z,11.1
2019-03-23T00:21:00.000Z,11.0
2019-03-23T00:26:00.000Z,10.9
2019-03-23T00:31:00.000Z,10.9
2019-03-23T00:36:00.000Z,10.8
2019-03-23T00:41:00.000Z,10.7
2019-03-23T00:46:00.000Z,10.6
2019-03-23T00:51:00.000Z,10.6
2019-03-23T00:56:00.000Z,10.6
2019-03-23T01:01:00.000Z,10.5
2019-03-23T01:06:00.000Z,10.5
2019-03-23T01:11:00.000Z,10.5
2019-03-23T01:16:00.000Z,10.5
2019-03-23T01:21:00.000Z,10.5
2019-03-23T01:26:00.000Z,10.4
2019-03-23T01:31:00.000Z,10.4
2019-03-23T01:36:00.000Z,10.3
2019-03-23T01:42:00.000Z,10.2
2019-03-23T01:47:00.000Z,10.2
2019-03-23T01:52:00.000Z,10.2
2019-03-23T01:57:00.000Z,10.2
2019-03-23T02:02:00.000Z,10.2
2019-03-23T02:07:00.000Z,10.2
2019-03-23T02:12:00.000Z,10.1
2019-03-23T02:17:00.000Z,10.1
2019-03-23T02:22:00.000Z,10.1
2019-03-23T02:27:00.000Z,10.1
2019-03-23T02:32:00.000Z,10.0
2019-03-23T02:37:00.000Z,10.0
2019-03-23T02:42:00.000Z,10.0
2019-03-23T02:47:00.000Z,10.0
2019-03-23T02:52:00.000Z,9.8
2019-03-23T02:57:00.000Z,9.7
2019-03-23T03:02:00.000Z,9.6
2019-03-23T03:07:00.000Z,9.5
2019-03-23T03:12:00.000Z,9.4
2019-03-23T03:17:00.000Z,9.3
2019-03-23T03:22:00.000Z,9.3
2019-03-23T03:27:00.000Z,9.4
2019-03-23T03:32:00.000Z,9.3
2019-03-23T03:37:00.000Z,9.3
2019-03-23T03:42:00.000Z,9.3
2019-03-23T03:47:00.000Z,9.2
2019-03-23T03:53:00.000Z,9.3
2019-03-23T03:58:00.000Z,9.3
2019-03-23T04:03:00.000Z,9.3
2019-03-23T04:08:00.000Z,9.2
2019-03-23T04:13:00.000Z,9.2
2019-03-23T04:18:00.000Z,9.2
2019-03-23T04:23:00.000Z,9.2
2019-03-23T04:28:00.000Z,9.2
2019-03-23T04:33:00.000Z,9.1
2019-03-23T04:38:00.000Z,9.1
2019-03-23T04:43:00.000Z,9.1
2019-03-23T04:48:00.000Z,9.2
2019-03-23T04:53:00.000Z,9.1
2019-03-23T04:58:00.000Z,9.0
2019-03-23T05:03:00.000Z,9.0
2019-03-23T05:08:00.000Z,9.0
2019-03-23T05:13:00.000Z,9.0
2019-03-23T05:18:00.000Z,8.8
2019-03-23T05:23:00.000Z,8.7
2019-03-23T05:28:00.000Z,8.7
2019-03-23T05:33:00.000Z,8.6
2019-03-23T05:38:00.000Z,8.7
2019-03-23T05:43:00.000Z,8.7
2019-03-23T05:48:00.000Z,8.8
2019-03-23T05:53:00.000Z,8.8
2019-03-23T05:58:00.000Z,8.8
2019-03-23T06:03:00.000Z,8.8
2019-03-23T06:08:00.000Z,8.8
2019-03-23T06:13:00.000Z,8.8
2019-03-23T06:18:00.000Z,8.8
2019-03-23T06:23:00.000Z,8.9
2019-03-23T06:28:00.000Z,9.0
2019-03-23T06:33:00.000Z,9.2
2019-03-23T06:38:00.000Z,9.3
2019-03-23T06:44:00.000Z,9.5
2019-03-23T06:49:00.000Z,9.7
2019-03-23T06:54:00.000Z,9.9
2019-03-23T06:59:00.000Z,10.0
2019-03-23T07:04:00.000Z,10.2
2019-03-23T07:09:00.000Z,10.4
2019-03-23T07:14:00.000Z,10.5
2019-03-23T07:19:00.000Z,10.6
2019-03-23T07:24:00.000Z,10.8
2019-03-23T07:29:00.000Z,10.9
2019-03-23T07:34:00.000Z,11.1
2019-03-23T07:39:00.000Z,11.2
2019-03-23T07:44:00.000Z,11.4
2019-03-23T07:49:00.000Z,11.6
2019-03-23T07:54:00.000Z,11.7
2019-03-23T07:59:00.000Z,11.8
2019-03-23T08:04:00.000Z,11.9
2019-03-23T08:09:00.000Z,12.1
2019-03-23T08:14:00.000Z,12.3
2019-03-23T08:19:00.000Z,12.4
2019-03-23T08:24:00.000Z,12.5
2019-03-23T08:29:00.000Z,12.7
2019-03-23T08:34:00.000Z,13.4
2019-03-23T08:39:00.000Z,14.7
2019-03-23T08:44:00.000Z,16.1
2019-03-23T08:49:00.000Z,17.4
2019-03-23T08:54:00.000Z,18.8
2019-03-23T08:59:00.000Z,19.7
2019-03-23T09:04:00.000Z,20.5
2019-03-23T09:09:00.000Z,21.2
2019-03-23T09:14:00.000Z,21.7
2019-03-23T09:20:00.000Z,22.3
2019-03-23T09:25:00.000Z,22.6
2019-03-23T09:30:00.000Z,22.9
2019-03-23T09:35:00.000Z,22.8
2019-03-23T09:40:00.000Z,22.3
2019-03-23T09:45:00.000Z,21.8
2019-03-23T09:50:00.000Z,21.6
2019-03-23T09:55:00.000Z,22.1
2019-03-23T10:00:00.000Z,22.6
2019-03-23T10:05:00.000Z,22.8
2019-03-23T10:10:00.000Z,22.9
2019-03-23T10:15:00.000Z,23.1
2019-03-23T10:20:00.000Z,23.2
2019-03-23T10:25:00.000Z,23.3
2019-03-23T10:30:00.000Z,23.5
2019-03-23T10:35:00.000Z,23.8
2019-03-23T10:40:00.000Z,23.6
2019-03-23T10:45:00.000Z,23.6
2019-03-23T10:50:00.000Z,23.9
2019-03-23T10:55:00.000Z,24.0
2019-03-23T11:00:00.000Z,23.9
2019-03-23T11:05:00.000Z,23.9
2019-03-23T11:10:00.000Z,23.8
2019-03-23T11:15:00.000Z,23.6
2019-03-23T11:20:00.000Z,23.5
2019-03-23T11:25:00.000Z,23.0
2019-03-23T11:30:00.000Z,22.8
2019-03-23T11:35:00.000Z,22.6
2019-03-23T11:40:00.000Z,22.6
2019-03-23T11:45:00.000Z,22.3
2019-03-23T11:51:00.000Z,21.8
2019-03-23T11:56:00.000Z,21.5
2019-03-23T12:01:00.000Z,21.3
2019-03-23T12:06:00.000Z,21.2
2019-03-23T12:11:00.000Z,21.1
2019-03-23T12:16:00.000Z,21.0
2019-03-23T12:21:00.000Z,20.8
2019-03-23T12:26:00.000Z,21.0
2019-03-23T12:31:00.000Z,21.2
2019-03-23T12:36:00.000Z,21.2
2019-03-23T12:41:00.000Z,21.1
2019-03-23T12:46:00.000Z,21.3
2019-03-23T12:51:00.000Z,21.4
2019-03-23T12:56:00.000Z,21.5
2019-03-23T13:01:00.000Z,21.7
2019-03-23T13:06:00.000Z,21.9
2019-03-23T13:11:00.000Z,22.1
2019-03-23T13:16:00.000Z,22.3
2019-03-23T13:21:00.000Z,22.3
2019-03-23T13:26:00.000Z,22.3
2019-03-23T13:31:00.000Z,22.1
2019-03-23T13:36:00.000Z,22.0
2019-03-23T13:41:00.000Z,22.2
2019-03-23T13:46:00.000Z,22.4
2019-03-23T13:51:00.000Z,22.5
2019-03-23T13:56:00.000Z,22.5
2019-03-23T14:01:00.000Z,22.7
2019-03-23T14:06:00.000Z,22.8
2019-03-23T14:11:00.000Z,22.7
2019-03-23T14:16:00.000Z,22.6
2019-03-23T14:21:00.000Z,22.4
2019-03-23T14:26:00.000Z,22.2
2019-03-23T14:31:00.000Z,22.1
2019-03-23T14:36:00.000Z,22.0
2019-03-23T14:41:00.000Z,21.9
2019-03-23T14:47:00.000Z,21.9
2019-03-23T14:52:00.000Z,21.8
2019-03-23T14:57:00.000Z,21.7
2019-03-23T15:02:00.000Z,21.5
2019-03-23T15:07:00.000Z,21.3
2019-03-23T15:12:00.000Z,21.2
2019-03-23T15:17:00.000Z,21.1
2019-03-23T15:22:00.000Z,20.9
2019-03-23T15:27:00.000Z,20.7
2019-03-23T15:32:00.000Z,20.5
2019-03-23T15:37:00.000Z,20.4
2019-03-23T15:42:00.000Z,20.1
2019-03-23T15:47:00.000Z,19.9
2019-03-23T15:52:00.000Z,19.7
2019-03-23T15:57:00.000Z,19.6
2019-03-23T16:02:00.000Z,19.4
2019-03-23T16:07:00.000Z,19.3
2019-03-23T16:12:00.000Z,19.1
2019-03-23T16:17:00.000Z,19.0
2019-03-23T16:22:00.000Z,18.8
2019-03-23T16:27:00.000Z,18.7
2019-03-23T16:32:00.000Z,18.5
2019-03-23T16:37:00.000Z,18.4
2019-03-23T16:42:00.000Z,18.3
2019-03-23T16:47:00.000Z,18.2
2019-03-23T16:52:00.000Z,18.0
2019-03-23T16:57:00.000Z,17.9
2019-03-23T17:02:00.000Z,17.7
2019-03-23T17:07:00.000Z,17.6
2019-03-23T17:12:00.000Z,17.4
2019-03-23T17:17:00.000Z,17.3
2019-03-23T17:22:00.000Z,17.2
2019-03-23T17:27:00.000Z,17.1
2019-03-23T17:32:00.000Z,17.0
2019-03-23T17:37:00.000Z,16.8
2019-03-23T17:42:00.000Z,16.7
2019-03-23T17:48:00.000Z,16.6
2019-03-23T17:53:00.000Z,16.5
2019-03-23T17:58:00.000Z,16.4
2019-03-23T18:03:00.000Z,16.3
2019-03-23T18:08:00.000Z,16.2
2019-03-23T18:13:00.000Z,16.1
2019-03-23T18:18:00.000Z,16.0
2019-03-23T18:23:00.000Z,15.9
2019-03-23T18:28:00.000Z,15.8
2019-03-23T18:33:00.000Z,15.7
2019-03-23T18:38:00.000Z,15.7
2019-03-23T18:43:00.000Z,15.7
2019-03-23T18:48:00.000Z,15.6
2019-03-23T18:53:00.000Z,15.6
2019-03-23T18:58:00.000Z,15.6
2019-03-23T19:03:00.000Z,15.6
2019-03-23T19:08:00.000Z,15.5
2019-03-23T19:13:00.000Z,15.5
2019-03-23T19:18:00.000Z,15.5
2019-03-23T19:23:00.000Z,15.4
2019-03-23T19:28:00.000Z,15.3
2019-03-23T19:33:00.000Z,15.2
2019-03-23T19:38:00.000Z,15.2
2019-03-23T19:43:00.000Z,15.1
2019-03-23T19:48:00.000Z,15.0
2019-03-23T19:53:00.000Z,14.9
2019-03-23T19:58:00.000Z,14.9
2019-03-23T20:03:00.000Z,14.8
2019-03-23T20:08:00.000Z,14.7
2019-03-23T20:13:00.000Z,14.6
2019-03-23T20:18:00.000Z,14.5
2019-03-23T20:24:00.000Z,14.4
2019-03-23T20:29:00.000Z,14.3
2019-03-23T20:34:00.000Z,14.3
2019-03-23T20:39:00.000Z,14.2
2019-03-23T20:44:00.000Z,14.2
2019-03-23T20:49:00.000Z,14.1
2019-03-23T20:54:00.000Z,14.1
2019-03-23T20:59:00.000Z,14.1
2019-03-23T21:04:00.000Z,14.0
2019-03-23T21:09:00.000Z,14.0
2019-03-23T21:14:00.000Z,13.9
2019-03-23T21:19:00.000Z,13.9
2019-03-23T21:24:00.000Z,13.8
2019-03-23T21:29:00.000Z,13.7
2019-03-23T21:34:00.000Z,13.7
2019-03-23T21:39:00.000Z,13.6
2019-03-23T21:44:00.000Z,13.6
2019-03-23T21:49:00.000Z,13.5
2019-03-23T21:54:00.000Z,13.5
2019-03-23T21:59:00.000Z,13.4
2019-03-23T22:04:00.000Z,13.3
2019-03-23T22:09:00.000Z,13.2
2019-03-23T22:14:00.000Z,13.2
2019-03-23T22:19:00.000Z,13.2
2019-03-23T22:24:00.000Z,13.1
2019-03-23T22:29:00.000Z,13.1
2019-03-23T22:34:00.000Z,13.0
2019-03-23T22:39:00.000Z,13.0
2019-03-23T22:44:00.000Z,13.0
2019-03-23T22:49:00.000Z,13.0
2019-03-23T22:54:00.000Z,12.9
2019-03-23T22:59:00.000Z,12.9
2019-03-23T23:04:00.000Z,12.8
2019-03-23T23:09:00.000Z,12.8
2019-03-23T23:14:00.000Z,12.8
2019-03-23T23:20:00.000Z,12.7
2019-03-23T23:25:00.000Z,12.6
2019-03-23T23:30:00.000Z,12.6
2019-03-23T23:35:00.000Z,12.5
2019-03-23T23:40:00.000Z,12.5
2019-03-23T23:45:00.000Z,12.5
2019-03-23T23:50:00.000Z,12.4
2019-03-23T23:55:00.000Z,12.4
